Time;durP1;ratioP1;P1;durP2;ratioP2;P2;SDS_P1;SDS_P2;PMS_P1;PMS_P2;Temp;Humidity;BMP_temperature;BMP_pressure;BME280_temperature;BME280_humidity;BME280_pressure;Samples;Min_cycle;Max_cycle;Signal;HPM_P1;HPM_P2
2024/03/18 00:00:17;;;;;;;24.83;12.60;;;12.40;59.90;;;;;;5039920;28;20280;-74
2024/03/18 00:02:44;;;;;;;30.00;13.00;;;12.40;59.90;;;;;;5038848;28;20020;-74
2024/03/18 00:05:12;;;;;;;31.98;14.20;;;12.40;59.90;;;;;;5039308;28;20211;-75
2024/03/18 00:07:39;;;;;;;32.78;13.30;;;12.40;59.90;;;;;;5038921;28;20041;-73
2024/03/18 00:10:09;;;;;;;29.83;13.52;;;12.40;60.00;;;;;;5042905;28;20037;-73
2024/03/18 00:12:36;;;;;;;28.77;13.77;;;12.40;60.00;;;;;;5039348;28;20044;-73
2024/03/18 00:15:03;;;;;;;32.83;13.45;;;12.40;60.00;;;;;;5037731;28;20061;-72
2024/03/18 00:17:29;;;;;;;30.33;13.48;;;12.40;59.90;;;;;;5038238;28;20107;-72
2024/03/18 00:19:55;;;;;;;38.08;14.40;;;12.40;59.90;;;;;;5039959;28;20029;-72
2024/03/18 00:22:21;;;;;;;29.85;14.07;;;12.40;60.00;;;;;;5019989;28;20089;-72
2024/03/18 00:24:47;;;;;;;31.73;13.23;;;12.30;59.90;;;;;;5038892;28;20379;-72
2024/03/18 00:27:14;;;;;;;30.42;12.90;;;12.30;59.90;;;;;;5038931;28;20033;-72
2024/03/18 00:29:40;;;;;;;28.52;13.13;;;12.40;60.10;;;;;;5042870;28;20086;-72
2024/03/18 00:32:06;;;;;;;29.98;13.00;;;12.40;60.10;;;;;;5043373;28;20040;-73
2024/03/18 00:34:32;;;;;;;35.88;14.30;;;12.30;60.10;;;;;;5041963;28;20136;-73
2024/03/18 00:36:59;;;;;;;26.83;13.32;;;12.30;60.20;;;;;;5042854;28;20037;-73
2024/03/18 00:39:26;;;;;;;38.92;14.32;;;12.30;60.20;;;;;;5041475;28;20407;-74
2024/03/18 00:41:52;;;;;;;32.05;14.35;;;12.30;60.20;;;;;;5024416;28;21031;-71
2024/03/18 00:44:23;;;;;;;31.75;14.07;;;12.30;60.20;;;;;;5024216;28;20037;-72
2024/03/18 00:46:49;;;;;;;24.00;13.38;;;12.30;60.30;;;;;;5043098;28;20969;-71
2024/03/18 00:49:15;;;;;;;39.97;14.70;;;12.30;60.30;;;;;;5040820;28;20052;-71
2024/03/18 00:51:42;;;;;;;32.33;15.25;;;12.30;60.30;;;;;;5026373;28;20045;-71
2024/03/18 00:54:09;;;;;;;28.58;14.05;;;12.30;60.40;;;;;;5024511;28;20036;-70
2024/03/18 00:56:39;;;;;;;28.85;14.82;;;12.30;60.50;;;;;;5042847;28;20062;-71
2024/03/18 00:59:06;;;;;;;32.72;14.85;;;12.30;60.60;;;;;;5042940;28;20095;-70
2024/03/18 01:01:33;;;;;;;29.88;14.73;;;12.30;60.60;;;;;;5022929;28;20035;-70
2024/03/18 01:04:03;;;;;;;29.92;14.45;;;12.30;60.70;;;;;;5040930;28;20059;-71
2024/03/18 01:06:29;;;;;;;38.25;15.43;;;12.30;60.60;;;;;;5024997;28;20038;-70
2024/03/18 01:08:56;;;;;;;37.55;16.73;;;12.30;60.70;;;;;;5042502;28;20025;-70
2024/03/18 01:11:22;;;;;;;30.67;15.80;;;12.30;60.50;;;;;;5041802;28;20072;-70
2024/03/18 01:13:49;;;;;;;39.45;15.98;;;12.30;60.50;;;;;;5041904;28;20072;-70
2024/03/18 01:16:20;;;;;;;33.72;14.80;;;12.30;60.50;;;;;;5042706;28;20037;-70
2024/03/18 01:18:47;;;;;;;34.90;15.38;;;12.30;60.50;;;;;;5037590;28;20045;-71
2024/03/18 01:21:14;;;;;;;28.85;15.00;;;12.30;60.50;;;;;;5022294;28;20132;-70
2024/03/18 01:23:40;;;;;;;34.17;14.38;;;12.30;60.40;;;;;;5036481;28;20086;-71
2024/03/18 01:26:07;;;;;;;27.13;14.80;;;12.20;60.30;;;;;;5037182;28;20657;-71
2024/03/18 01:28:34;;;;;;;29.30;14.52;;;12.20;60.40;;;;;;5039182;28;20043;-71
2024/03/18 01:31:03;;;;;;;34.83;14.52;;;12.20;60.50;;;;;;5039507;28;20071;-71
2024/03/18 01:33:32;;;;;;;30.15;14.35;;;12.20;60.50;;;;;;5038592;28;20804;-71
2024/03/18 01:35:59;;;;;;;28.63;14.07;;;12.20;60.60;;;;;;5038849;28;20684;-70
2024/03/18 01:38:26;;;;;;;34.42;14.25;;;12.20;60.60;;;;;;5039633;28;20044;-71
2024/03/18 01:40:53;;;;;;;30.48;14.32;;;12.20;60.60;;;;;;5022101;28;20068;-71
2024/03/18 01:43:19;;;;;;;31.30;14.68;;;12.20;60.70;;;;;;5042940;28;20130;-71
2024/03/18 01:45:46;;;;;;;33.33;14.60;;;12.20;60.70;;;;;;5042117;28;20033;-71
2024/03/18 01:48:13;;;;;;;32.25;14.38;;;12.20;60.70;;;;;;5025070;28;20548;-71
2024/03/18 01:50:41;;;;;;;33.67;14.05;;;12.20;60.70;;;;;;5023756;28;20033;-72
2024/03/18 01:53:11;;;;;;;31.10;14.55;;;12.20;60.60;;;;;;5026703;28;20037;-70
2024/03/18 01:55:38;;;;;;;31.80;13.45;;;12.20;60.60;;;;;;5040957;28;20033;-71
2024/03/18 01:58:06;;;;;;;33.38;15.15;;;12.20;60.60;;;;;;5043207;28;20037;-70
2024/03/18 02:00:32;;;;;;;34.42;14.45;;;12.20;60.60;;;;;;5039498;28;20476;-70
2024/03/18 02:03:01;;;;;;;39.22;15.00;;;12.20;61.20;;;;;;5042780;28;20059;-70
2024/03/18 02:05:27;;;;;;;29.75;13.00;;;12.20;60.70;;;;;;5039391;28;20479;-70
2024/03/18 02:07:53;;;;;;;38.17;14.82;;;12.20;60.70;;;;;;5040832;28;20037;-70
2024/03/18 02:10:19;;;;;;;29.73;14.38;;;12.20;60.70;;;;;;5042535;28;20399;-72
2024/03/18 02:12:46;;;;;;;29.33;14.30;;;12.20;60.70;;;;;;5024454;28;20044;-72
2024/03/18 02:15:12;;;;;;;34.55;14.20;;;12.20;60.70;;;;;;5042377;28;20478;-71
2024/03/18 02:17:39;;;;;;;39.10;14.65;;;12.20;60.70;;;;;;5039811;28;20041;-71
2024/03/18 02:20:06;;;;;;;28.10;13.13;;;12.10;60.70;;;;;;5026747;28;20033;-71
2024/03/18 02:22:32;;;;;;;31.45;14.00;;;12.10;60.60;;;;;;5043123;28;20029;-72
2024/03/18 02:24:58;;;;;;;37.53;14.32;;;12.10;60.70;;;;;;5041989;28;20088;-71
2024/03/18 02:27:30;;;;;;;39.67;15.13;;;12.10;60.60;;;;;;5041158;28;20093;-71
2024/03/18 02:29:57;;;;;;;29.55;13.95;;;12.10;60.70;;;;;;5040321;28;20629;-71
2024/03/18 02:32:23;;;;;;;34.25;15.27;;;12.10;60.70;;;;;;5022006;28;20029;-71
2024/03/18 02:34:49;;;;;;;37.08;15.48;;;12.10;60.60;;;;;;5038973;28;20095;-72
2024/03/18 02:37:15;;;;;;;29.60;13.63;;;12.10;60.70;;;;;;5023449;28;20495;-71
2024/03/18 02:39:42;;;;;;;35.45;14.57;;;12.10;60.70;;;;;;5040240;28;21484;-71
2024/03/18 02:42:08;;;;;;;36.13;14.77;;;12.10;60.80;;;;;;5039741;28;20423;-71
2024/03/18 02:44:34;;;;;;;33.45;15.07;;;12.10;60.80;;;;;;5037994;28;20029;-71
2024/03/18 02:47:00;;;;;;;33.90;15.40;;;12.10;60.80;;;;;;5022567;28;20033;-71
2024/03/18 02:49:26;;;;;;;37.38;15.32;;;12.10;60.70;;;;;;5039378;28;20035;-71
2024/03/18 02:51:52;;;;;;;37.85;15.02;;;12.10;60.80;;;;;;5022869;28;20069;-71
2024/03/18 02:54:19;;;;;;;38.65;15.07;;;12.10;60.80;;;;;;5038952;28;20069;-71
2024/03/18 02:56:45;;;;;;;40.65;15.10;;;12.10;60.90;;;;;;5042427;28;20037;-71
2024/03/18 02:59:10;;;;;;;37.53;16.17;;;12.10;60.80;;;;;;5039228;28;20047;-70
2024/03/18 03:01:37;;;;;;;35.03;15.15;;;12.10;61.10;;;;;;5040271;28;20698;-70
2024/03/18 03:04:03;;;;;;;32.50;15.35;;;12.10;60.90;;;;;;5040414;28;20087;-70
2024/03/18 03:06:29;;;;;;;38.97;16.10;;;12.10;60.90;;;;;;5006030;28;20040;-70
2024/03/18 03:08:57;;;;;;;35.58;15.40;;;12.10;60.90;;;;;;5043192;28;20121;-70
2024/03/18 03:11:23;;;;;;;30.67;15.30;;;12.10;60.90;;;;;;5041870;28;20490;-70
2024/03/18 03:13:49;;;;;;;34.00;15.57;;;12.10;60.90;;;;;;5040385;28;20077;-71
2024/03/18 03:16:15;;;;;;;33.25;13.82;;;12.10;60.90;;;;;;5040273;28;20519;-70
2024/03/18 03:18:41;;;;;;;37.65;15.30;;;12.10;60.90;;;;;;5038518;28;20045;-70
2024/03/18 03:21:09;;;;;;;30.63;14.68;;;12.10;60.90;;;;;;5023623;28;20028;-71
2024/03/18 03:23:39;;;;;;;42.58;16.15;;;12.10;60.90;;;;;;5038765;28;20040;-70
2024/03/18 03:26:05;;;;;;;34.67;15.50;;;12.10;60.90;;;;;;5040316;28;20430;-70
2024/03/18 03:28:31;;;;;;;32.58;15.02;;;12.10;60.80;;;;;;5039186;28;20040;-71
2024/03/18 03:31:05;;;;;;;35.70;15.38;;;12.10;60.90;;;;;;5038725;28;20029;-70
2024/03/18 03:33:35;;;;;;;30.23;15.10;;;12.10;60.70;;;;;;5039384;28;20055;-71
2024/03/18 03:36:06;;;;;;;30.48;14.85;;;12.00;60.70;;;;;;5040997;28;20423;-71
2024/03/18 03:38:32;;;;;;;36.20;14.23;;;12.10;60.70;;;;;;5040196;28;20395;-70
2024/03/18 03:40:58;;;;;;;34.30;14.40;;;12.10;60.80;;;;;;5041592;28;20033;-71
2024/03/18 03:43:24;;;;;;;31.75;15.23;;;12.10;60.80;;;;;;5041771;28;20029;-70
2024/03/18 03:45:59;;;;;;;29.52;14.63;;;12.10;60.80;;;;;;5040967;28;20094;-71
2024/03/18 03:48:26;;;;;;;34.78;14.90;;;12.10;60.90;;;;;;5038849;28;20962;-71
2024/03/18 03:50:54;;;;;;;29.95;14.45;;;12.00;60.90;;;;;;5039754;28;20504;-71
2024/03/18 03:53:22;;;;;;;38.38;15.90;;;12.10;60.90;;;;;;5040628;28;20060;-70
2024/03/18 03:55:57;;;;;;;44.00;15.80;;;12.10;60.90;;;;;;5025415;28;20029;-70
2024/03/18 03:58:27;;;;;;;31.83;14.95;;;12.10;60.90;;;;;;5026687;28;20033;-70
2024/03/18 04:00:53;;;;;;;34.08;14.43;;;12.00;60.90;;;;;;5019566;28;20120;-71
2024/03/18 04:03:22;;;;;;;33.22;14.93;;;12.00;60.90;;;;;;5039671;28;20056;-71
2024/03/18 04:05:48;;;;;;;34.38;14.68;;;12.00;60.90;;;;;;5039615;28;20029;-71
2024/03/18 04:08:14;;;;;;;31.70;13.57;;;12.00;60.90;;;;;;5022304;28;20115;-71
2024/03/18 04:10:41;;;;;;;34.20;14.43;;;12.00;61.00;;;;;;5005655;28;20147;-72
2024/03/18 04:13:09;;;;;;;30.73;14.75;;;12.00;61.10;;;;;;5036743;28;20045;-72
2024/03/18 04:15:36;;;;;;;31.83;14.32;;;12.00;61.10;;;;;;5035462;28;20566;-72
2024/03/18 04:18:03;;;;;;;34.05;14.60;;;12.00;61.10;;;;;;5038852;28;20084;-72
2024/03/18 04:20:32;;;;;;;33.00;14.63;;;12.00;61.10;;;;;;5040813;28;20044;-73
2024/03/18 04:22:58;;;;;;;32.53;14.48;;;12.00;61.10;;;;;;5038793;28;20037;-72
2024/03/18 04:25:24;;;;;;;36.53;15.15;;;12.00;61.10;;;;;;5038511;28;20071;-73
2024/03/18 04:27:50;;;;;;;37.58;14.27;;;12.00;61.10;;;;;;5037683;28;20163;-72
2024/03/18 04:30:18;;;;;;;32.40;14.57;;;12.00;61.00;;;;;;5024202;28;20068;-72
2024/03/18 04:32:45;;;;;;;27.83;13.57;;;12.00;61.60;;;;;;5021599;28;20033;-72
2024/03/18 04:35:11;;;;;;;28.25;14.10;;;12.10;61.10;;;;;;5037524;28;20057;-73
2024/03/18 04:37:46;;;;;;;29.70;14.43;;;12.10;61.00;;;;;;5038838;28;20126;-71
2024/03/18 04:40:14;;;;;;;33.42;15.52;;;12.10;61.00;;;;;;5020681;28;20041;-73
2024/03/18 04:42:40;;;;;;;34.95;13.95;;;12.00;60.90;;;;;;5039514;28;20067;-73
2024/03/18 04:45:07;;;;;;;32.30;14.95;;;12.00;60.80;;;;;;5039651;28;20078;-74
2024/03/18 04:47:53;;;;;;;37.95;15.18;;;12.10;60.90;;;;;;5021357;28;20128;-74
2024/03/18 04:50:23;;;;;;;37.13;15.45;;;12.10;60.80;;;;;;5022533;28;20041;-73
2024/03/18 04:52:50;;;;;;;35.67;15.55;;;12.00;60.70;;;;;;5039919;28;20083;-74
2024/03/18 04:55:17;;;;;;;41.22;15.43;;;12.10;60.80;;;;;;5022896;28;20041;-74
2024/03/18 04:57:43;;;;;;;44.55;16.35;;;12.00;60.70;;;;;;5038978;28;20370;-73
2024/03/18 05:00:11;;;;;;;38.63;15.70;;;12.00;60.70;;;;;;5040049;28;20063;-73
2024/03/18 05:02:56;;;;;;;36.78;15.50;;;12.00;60.60;;;;;;5039776;28;20596;-73
2024/03/18 05:05:22;;;;;;;37.80;16.00;;;12.00;60.70;;;;;;5039675;28;20139;-73
2024/03/18 05:07:48;;;;;;;36.55;15.90;;;12.00;60.90;;;;;;5039504;28;20045;-74
2024/03/18 05:10:33;;;;;;;38.50;16.73;;;12.00;61.20;;;;;;5036778;28;20074;-75
2024/03/18 05:13:01;;;;;;;34.53;15.50;;;12.00;61.60;;;;;;5037163;28;20198;-75
2024/03/18 05:15:27;;;;;;;34.08;15.60;;;12.00;62.20;;;;;;5021136;28;20080;-73
2024/03/18 05:17:54;;;;;;;31.20;16.33;;;12.10;62.50;;;;;;5040856;28;20052;-75
2024/03/18 05:20:20;;;;;;;38.28;17.00;;;12.00;62.70;;;;;;5042615;28;20033;-74
2024/03/18 05:22:47;;;;;;;31.80;17.00;;;12.10;62.80;;;;;;5023604;28;20506;-74
2024/03/18 05:25:14;;;;;;;41.55;16.90;;;12.10;62.80;;;;;;5040806;28;20087;-75
2024/03/18 05:27:58;;;;;;;33.55;15.73;;;12.00;62.70;;;;;;5041854;28;20044;-74
2024/03/18 05:30:24;;;;;;;49.65;17.25;;;12.10;62.70;;;;;;5029715;28;20028;-74
2024/03/18 05:32:50;;;;;;;38.80;16.42;;;12.00;62.80;;;;;;5042776;28;20532;-73
2024/03/18 05:35:16;;;;;;;36.47;16.35;;;12.10;62.80;;;;;;5041518;28;20084;-73
2024/03/18 05:37:42;;;;;;;36.30;16.00;;;12.10;62.60;;;;;;5042430;28;20556;-73
2024/03/18 05:40:09;;;;;;;37.63;16.05;;;12.10;62.40;;;;;;5040500;28;20038;-73
2024/03/18 05:42:35;;;;;;;31.25;15.55;;;12.10;62.30;;;;;;5042163;28;20029;-73
2024/03/18 05:45:01;;;;;;;38.65;16.00;;;12.10;62.20;;;;;;5025698;28;20025;-73
2024/03/18 05:47:27;;;;;;;38.10;15.93;;;12.10;62.00;;;;;;5040859;28;20029;-73
2024/03/18 05:49:53;;;;;;;31.73;16.65;;;12.10;61.90;;;;;;5042118;28;20098;-73
2024/03/18 05:52:20;;;;;;;36.85;15.25;;;12.10;62.60;;;;;;5041580;28;20107;-73
2024/03/18 05:54:46;;;;;;;33.33;16.67;;;12.10;61.80;;;;;;5041762;28;20041;-73
2024/03/18 05:57:12;;;;;;;31.40;15.25;;;12.10;61.70;;;;;;5044254;28;20119;-73
2024/03/18 05:59:38;;;;;;;34.65;16.38;;;12.10;61.70;;;;;;5040133;28;20123;-74
2024/03/18 06:02:04;;;;;;;39.53;16.08;;;12.10;61.50;;;;;;5042756;28;20176;-73
2024/03/18 06:04:30;;;;;;;33.95;15.55;;;12.10;61.50;;;;;;5041174;28;20365;-74
2024/03/18 06:06:59;;;;;;;39.08;16.05;;;12.10;61.50;;;;;;5042114;28;20485;-73
2024/03/18 06:09:27;;;;;;;35.58;15.70;;;12.00;61.30;;;;;;5041471;28;20048;-73
2024/03/18 06:11:53;;;;;;;33.45;16.27;;;12.10;61.30;;;;;;5012087;28;20743;-73
2024/03/18 06:14:19;;;;;;;33.20;15.55;;;12.10;61.20;;;;;;5041947;28;20055;-73
2024/03/18 06:16:45;;;;;;;34.85;16.00;;;12.10;61.20;;;;;;5041529;28;20044;-75
2024/03/18 06:19:14;;;;;;;36.00;14.85;;;12.10;61.20;;;;;;5040387;28;20542;-76
2024/03/18 06:21:42;;;;;;;30.98;15.00;;;12.10;61.20;;;;;;5023040;28;20040;-75
2024/03/18 06:24:18;;;;;;;31.13;14.90;;;12.10;61.40;;;;;;5038147;28;20029;-74
2024/03/18 06:26:44;;;;;;;33.35;14.93;;;12.10;61.40;;;;;;5039008;28;20090;-74
2024/03/18 06:29:11;;;;;;;28.85;14.57;;;12.10;61.50;;;;;;5037850;28;20562;-73
2024/03/18 06:31:38;;;;;;;40.63;15.43;;;12.10;61.60;;;;;;5038096;28;20033;-74
2024/03/18 06:34:05;;;;;;;34.05;14.73;;;12.10;61.70;;;;;;5039085;28;20048;-74
2024/03/18 06:36:32;;;;;;;32.60;15.57;;;12.10;61.70;;;;;;5038805;28;20124;-74
2024/03/18 06:38:58;;;;;;;32.75;14.40;;;12.10;61.80;;;;;;5021455;28;21158;-74
2024/03/18 06:41:25;;;;;;;35.38;14.48;;;12.20;61.90;;;;;;5037728;28;20036;-73
2024/03/18 06:43:51;;;;;;;35.25;15.93;;;12.10;61.80;;;;;;5018522;28;20064;-74
2024/03/18 06:46:17;;;;;;;36.55;15.60;;;12.20;61.80;;;;;;5036995;28;20068;-74
2024/03/18 06:48:43;;;;;;;40.60;16.38;;;12.20;61.80;;;;;;5039813;28;20033;-74
2024/03/18 06:51:14;;;;;;;39.38;15.88;;;12.20;61.80;;;;;;5038705;28;20059;-73
2024/03/18 06:53:40;;;;;;;37.08;16.05;;;12.20;61.80;;;;;;5038683;28;20159;-73
2024/03/18 06:56:09;;;;;;;38.92;15.75;;;12.20;61.70;;;;;;5037238;28;20149;-74
2024/03/18 06:58:39;;;;;;;35.45;16.33;;;12.20;61.60;;;;;;5040397;28;20124;-74
2024/03/18 07:01:05;;;;;;;33.80;16.45;;;12.20;61.70;;;;;;5036114;28;20043;-74
2024/03/18 07:03:32;;;;;;;39.25;15.95;;;12.20;61.50;;;;;;5037027;28;20033;-73
2024/03/18 07:06:01;;;;;;;38.40;15.63;;;12.20;61.40;;;;;;5037165;28;20460;-74
2024/03/18 07:08:28;;;;;;;36.17;15.45;;;12.20;61.30;;;;;;5037089;28;20044;-73
2024/03/18 07:10:54;;;;;;;40.33;16.05;;;12.20;61.30;;;;;;5038488;28;20499;-73
2024/03/18 07:13:20;;;;;;;34.78;16.65;;;12.20;61.20;;;;;;5034736;28;20048;-73
2024/03/18 07:15:46;;;;;;;40.28;16.35;;;12.30;61.20;;;;;;5038736;28;20089;-73
2024/03/18 07:18:12;;;;;;;40.65;17.25;;;12.30;61.20;;;;;;5039280;28;20053;-73
2024/03/18 07:20:38;;;;;;;41.72;15.70;;;12.30;61.10;;;;;;5039265;28;20132;-72
2024/03/18 07:23:04;;;;;;;36.22;16.23;;;12.30;61.10;;;;;;5039645;28;20037;-73
2024/03/18 07:25:31;;;;;;;35.25;16.63;;;12.30;61.00;;;;;;5038509;28;20564;-72
2024/03/18 07:27:57;;;;;;;40.67;16.90;;;12.30;60.90;;;;;;5038361;28;20033;-73
2024/03/18 07:30:23;;;;;;;33.65;15.55;;;12.30;60.90;;;;;;5039522;28;20035;-72
2024/03/18 07:32:49;;;;;;;41.67;17.15;;;12.30;60.70;;;;;;5036254;28;20411;-73
2024/03/18 07:35:15;;;;;;;34.72;16.38;;;12.30;60.70;;;;;;5038756;28;20095;-73
2024/03/18 07:37:42;;;;;;;45.58;16.83;;;12.30;60.70;;;;;;5038102;28;20041;-73
2024/03/18 07:40:11;;;;;;;35.40;16.70;;;12.30;60.70;;;;;;5038100;28;20144;-73
2024/03/18 07:42:40;;;;;;;40.05;17.33;;;12.40;60.60;;;;;;5038868;28;20045;-73
2024/03/18 07:45:09;;;;;;;33.20;16.35;;;12.30;60.50;;;;;;5024367;28;21687;-73
2024/03/18 07:47:35;;;;;;;36.58;16.90;;;12.30;60.40;;;;;;5035398;28;20041;-74
2024/03/18 07:50:06;;;;;;;38.33;16.40;;;12.40;60.50;;;;;;5034860;28;20044;-73
2024/03/18 07:52:32;;;;;;;40.20;16.08;;;12.40;60.40;;;;;;5036439;28;20036;-73
2024/03/18 07:55:01;;;;;;;40.22;16.67;;;12.30;60.30;;;;;;5038568;28;20041;-74
2024/03/18 07:57:30;;;;;;;40.63;17.85;;;12.40;60.30;;;;;;5037326;28;20037;-73
2024/03/18 07:59:56;;;;;;;42.53;16.05;;;12.40;60.20;;;;;;5039533;28;20115;-73
2024/03/18 08:02:22;;;;;;;37.42;16.85;;;12.40;60.10;;;;;;5037669;28;20131;-73
2024/03/18 08:04:49;;;;;;;37.28;16.10;;;12.40;60.10;;;;;;5039984;28;20033;-74
2024/03/18 08:07:15;;;;;;;44.80;17.33;;;12.40;60.10;;;;;;5037445;28;20037;-74
2024/03/18 08:09:41;;;;;;;44.20;17.00;;;12.40;60.00;;;;;;5036116;28;20044;-73
2024/03/18 08:12:07;;;;;;;45.35;16.70;;;12.40;60.00;;;;;;5036408;28;20458;-73
2024/03/18 08:14:36;;;;;;;33.55;16.80;;;12.40;60.00;;;;;;5037108;28;20032;-73
2024/03/18 08:17:04;;;;;;;33.50;16.48;;;12.40;60.00;;;;;;5036436;28;20128;-74
2024/03/18 08:19:31;;;;;;;41.58;16.45;;;12.40;60.10;;;;;;5038193;28;20037;-73
2024/03/18 08:21:57;;;;;;;39.15;15.52;;;12.40;60.00;;;;;;5036352;28;20041;-74
2024/03/18 08:24:23;;;;;;;49.38;17.92;;;12.40;60.00;;;;;;5034783;28;20025;-74
2024/03/18 08:26:49;;;;;;;42.30;16.88;;;12.40;60.00;;;;;;5036188;28;20044;-75
2024/03/18 08:29:15;;;;;;;36.83;16.17;;;12.40;60.00;;;;;;5018603;28;20037;-75
2024/03/18 08:31:42;;;;;;;34.17;16.02;;;12.50;60.00;;;;;;5036715;28;21230;-75
2024/03/18 08:34:08;;;;;;;38.35;15.57;;;12.50;59.90;;;;;;5034708;28;20040;-75
2024/03/18 08:36:34;;;;;;;38.70;15.85;;;12.40;59.90;;;;;;5037847;28;20106;-74
2024/03/18 08:39:00;;;;;;;40.45;16.42;;;12.50;59.90;;;;;;5035897;28;20138;-74
2024/03/18 08:41:26;;;;;;;36.03;16.48;;;12.50;59.90;;;;;;5036684;28;20171;-73
2024/03/18 08:43:52;;;;;;;38.15;16.10;;;12.50;59.90;;;;;;5035663;28;20040;-74
2024/03/18 08:46:18;;;;;;;34.53;16.20;;;12.50;59.90;;;;;;5038322;28;20044;-73
2024/03/18 08:48:44;;;;;;;39.22;16.23;;;12.50;59.90;;;;;;5037199;28;20470;-74
2024/03/18 08:51:10;;;;;;;32.63;15.25;;;12.50;59.90;;;;;;5034906;28;20112;-74
2024/03/18 08:53:36;;;;;;;32.28;15.90;;;12.50;59.90;;;;;;5039202;28;20029;-73
2024/03/18 08:56:02;;;;;;;36.03;16.40;;;12.50;59.80;;;;;;5035118;28;20095;-73
2024/03/18 08:58:30;;;;;;;37.72;15.32;;;12.50;59.80;;;;;;5035534;28;20474;-72
2024/03/18 09:00:56;;;;;;;35.67;15.60;;;12.50;59.70;;;;;;5040011;28;20033;-72
2024/03/18 09:03:22;;;;;;;38.22;15.10;;;12.50;59.80;;;;;;5036969;28;20121;-72
2024/03/18 09:05:55;;;;;;;37.63;14.60;;;12.60;59.80;;;;;;5036011;28;20594;-72
2024/03/18 09:08:22;;;;;;;31.63;14.27;;;12.50;59.80;;;;;;5020082;28;20087;-73
2024/03/18 09:10:49;;;;;;;40.30;15.88;;;12.50;59.80;;;;;;5020671;28;20044;-73
2024/03/18 09:13:16;;;;;;;39.45;15.23;;;12.60;59.80;;;;;;5034209;28;20037;-73
2024/03/18 09:15:42;;;;;;;37.45;14.73;;;12.60;59.80;;;;;;5031597;28;20491;-73
2024/03/18 09:18:08;;;;;;;30.17;15.68;;;12.60;59.70;;;;;;5036755;28;20451;-73
2024/03/18 09:20:34;;;;;;;29.95;13.70;;;12.60;59.70;;;;;;5039483;28;20159;-73
2024/03/18 09:23:00;;;;;;;27.15;14.45;;;12.60;59.70;;;;;;5035117;28;20467;-74
2024/03/18 09:25:27;;;;;;;39.10;16.23;;;12.60;59.70;;;;;;5035047;28;20160;-74
2024/03/18 09:27:53;;;;;;;31.75;15.32;;;12.60;59.60;;;;;;5034145;28;20041;-74
2024/03/18 09:30:21;;;;;;;30.02;15.07;;;12.60;59.60;;;;;;5038909;28;20033;-73
2024/03/18 09:32:47;;;;;;;33.40;15.30;;;12.60;59.60;;;;;;5052197;28;20605;-73
2024/03/18 09:35:13;;;;;;;34.50;15.32;;;12.60;59.50;;;;;;5035838;28;20052;-73
2024/03/18 09:37:39;;;;;;;30.35;15.07;;;12.60;59.50;;;;;;5034632;28;20047;-72
2024/03/18 09:40:06;;;;;;;33.22;15.30;;;12.60;59.50;;;;;;5035856;28;20033;-74
2024/03/18 09:42:35;;;;;;;35.90;15.40;;;12.70;59.50;;;;;;5033687;28;20510;-74
2024/03/18 09:45:02;;;;;;;33.03;15.80;;;12.70;59.50;;;;;;5036219;28;20060;-73
2024/03/18 09:47:31;;;;;;;42.58;16.35;;;12.60;59.40;;;;;;5036829;28;20098;-73
2024/03/18 09:49:57;;;;;;;35.05;15.82;;;12.70;59.30;;;;;;5034000;28;20579;-73
2024/03/18 09:52:29;;;;;;;35.33;15.50;;;12.60;59.30;;;;;;5033722;28;20145;-73
2024/03/18 09:54:55;;;;;;;32.47;16.10;;;12.60;59.30;;;;;;5035439;28;20036;-72
2024/03/18 09:57:26;;;;;;;33.05;15.77;;;12.70;59.40;;;;;;5032533;28;20515;-73
2024/03/18 09:59:53;;;;;;;33.33;15.00;;;12.60;59.40;;;;;;5036523;28;20033;-72
2024/03/18 10:02:19;;;;;;;37.15;15.70;;;12.70;59.40;;;;;;5037724;28;20045;-73
2024/03/18 10:04:46;;;;;;;38.90;14.88;;;12.70;59.40;;;;;;5041322;28;20132;-72
2024/03/18 10:07:16;;;;;;;33.20;15.13;;;12.70;59.30;;;;;;5038378;28;20136;-75
2024/03/18 10:09:47;;;;;;;30.80;15.80;;;12.70;59.30;;;;;;5053791;28;20053;-73
2024/03/18 10:12:14;;;;;;;31.13;15.30;;;12.70;59.20;;;;;;5038949;28;20123;-73
2024/03/18 10:14:41;;;;;;;35.50;16.60;;;12.70;59.20;;;;;;5036928;28;20037;-74
2024/03/18 10:17:15;;;;;;;36.65;16.30;;;12.70;59.20;;;;;;5038134;28;20074;-74
2024/03/18 10:19:42;;;;;;;33.83;15.95;;;12.70;59.20;;;;;;5040312;28;20075;-74
2024/03/18 10:22:13;;;;;;;41.45;16.92;;;12.70;59.20;;;;;;5039085;28;20029;-74
2024/03/18 10:24:40;;;;;;;41.05;17.17;;;12.70;59.20;;;;;;5039821;28;20403;-74
2024/03/18 10:27:07;;;;;;;32.28;16.85;;;12.70;59.20;;;;;;5038815;28;20067;-73
2024/03/18 10:29:34;;;;;;;42.08;16.10;;;12.70;59.20;;;;;;5039030;28;20083;-73
2024/03/18 10:32:01;;;;;;;40.33;17.60;;;12.70;59.10;;;;;;5039097;28;20044;-73
2024/03/18 10:34:35;;;;;;;38.63;18.10;;;12.70;59.10;;;;;;5036814;28;20033;-73
2024/03/18 10:37:02;;;;;;;35.90;18.02;;;12.70;58.90;;;;;;5037273;28;20040;-73
2024/03/18 10:39:47;;;;;;;38.40;17.95;;;12.70;58.90;;;;;;5040173;28;20033;-73
2024/03/18 10:42:20;;;;;;;34.53;17.40;;;12.70;58.80;;;;;;5041644;28;20033;-73
2024/03/18 10:45:10;;;;;;;39.25;18.20;;;12.70;58.70;;;;;;5034746;28;20071;-72
2024/03/18 10:47:37;;;;;;;43.72;17.27;;;12.70;58.70;;;;;;5037651;28;20880;-74
2024/03/18 10:50:03;;;;;;;35.05;17.27;;;12.70;58.70;;;;;;5039914;28;20541;-73
2024/03/18 10:52:33;;;;;;;37.28;17.75;;;12.70;58.80;;;;;;5034815;28;20041;-73
2024/03/18 10:55:00;;;;;;;40.35;16.75;;;12.70;58.80;;;;;;5038221;28;20326;-73
2024/03/18 10:57:27;;;;;;;33.90;16.45;;;12.70;59.40;;;;;;5037489;28;21420;-74
2024/03/18 10:59:54;;;;;;;37.20;16.90;;;12.70;58.80;;;;;;5036656;28;20570;-74
2024/03/18 11:02:28;;;;;;;35.92;17.67;;;12.70;58.70;;;;;;5038352;28;20159;-74
2024/03/18 11:04:57;;;;;;;48.65;17.90;;;12.70;58.60;;;;;;5037889;28;20037;-73
2024/03/18 11:07:32;;;;;;;35.13;15.15;;;12.70;58.60;;;;;;5039064;28;20494;-74
2024/03/18 11:10:11;;;;;;;30.90;13.38;;;12.80;60.10;;;;;;5038521;28;20037;-75
2024/03/18 11:12:37;;;;;;;27.85;12.35;;;12.80;61.50;;;;;;5037272;28;20042;-75
2024/03/18 11:15:07;;;;;;;35.83;15.13;;;12.90;61.40;;;;;;5039482;28;20032;-75
2024/03/18 11:17:46;;;;;;;38.60;16.15;;;12.90;61.30;;;;;;5038595;28;20075;-75
2024/03/18 11:20:19;;;;;;;32.80;15.65;;;12.90;60.70;;;;;;5037508;28;20459;-74
2024/03/18 11:22:56;;;;;;;32.35;15.43;;;12.90;60.30;;;;;;5034324;28;20048;-74
2024/03/18 11:25:24;;;;;;;36.70;15.95;;;12.90;60.00;;;;;;5037310;28;20112;-76
2024/03/18 11:27:52;;;;;;;33.10;16.02;;;12.90;60.00;;;;;;5035341;28;20041;-75
2024/03/18 11:30:28;;;;;;;36.35;17.20;;;12.90;60.00;;;;;;5040961;28;20128;-73
2024/03/18 11:32:55;;;;;;;31.58;16.42;;;12.90;59.70;;;;;;5038047;28;20028;-74
2024/03/18 11:35:24;;;;;;;30.58;15.80;;;12.90;59.90;;;;;;5035820;28;20523;-74
2024/03/18 11:37:50;;;;;;;33.97;16.15;;;12.90;59.70;;;;;;5037555;28;20099;-74
2024/03/18 11:40:18;;;;;;;30.73;15.25;;;12.80;59.40;;;;;;5036778;28;20033;-75
2024/03/18 11:42:45;;;;;;;35.88;16.23;;;12.80;59.70;;;;;;5038356;28;20048;-75
2024/03/18 11:45:20;;;;;;;32.28;15.05;;;12.80;59.80;;;;;;5040746;28;20599;-73
2024/03/18 11:47:48;;;;;;;27.52;14.25;;;12.80;59.70;;;;;;5037119;28;20037;-76
2024/03/18 11:50:14;;;;;;;31.55;15.52;;;12.80;59.90;;;;;;5038851;28;20700;-75
2024/03/18 11:52:43;;;;;;;35.58;15.98;;;12.80;60.20;;;;;;5034033;28;20044;-76
2024/03/18 11:55:15;;;;;;;35.55;16.65;;;12.80;60.10;;;;;;5034937;28;20033;-75
2024/03/18 11:57:43;;;;;;;33.60;15.02;;;12.80;60.20;;;;;;5036486;28;20458;-75
2024/03/18 12:00:11;;;;;;;28.40;14.85;;;12.80;59.90;;;;;;5038619;28;20068;-74
2024/03/18 12:02:42;;;;;;;34.42;15.20;;;12.80;59.90;;;;;;5037421;28;20029;-74
2024/03/18 12:05:09;;;;;;;34.92;15.95;;;12.80;59.80;;;;;;5036256;28;20036;-73
2024/03/18 12:07:36;;;;;;;33.33;16.42;;;12.80;59.90;;;;;;5039202;28;20144;-74
2024/03/18 12:10:04;;;;;;;35.92;15.52;;;12.80;60.00;;;;;;5037899;28;20039;-74
2024/03/18 12:12:38;;;;;;;29.35;15.10;;;12.80;59.60;;;;;;5037015;28;20044;-74
2024/03/18 12:15:05;;;;;;;33.88;15.43;;;12.70;60.00;;;;;;5035973;28;20044;-75
2024/03/18 12:17:32;;;;;;;34.33;15.52;;;12.80;60.10;;;;;;5037529;28;20511;-74
2024/03/18 12:20:03;;;;;;;36.55;15.15;;;12.70;59.70;;;;;;5036237;28;20025;-74
2024/03/18 12:22:30;;;;;;;31.67;15.15;;;12.70;60.00;;;;;;5039321;28;20025;-74
2024/03/18 12:30:32;;;;;;;32.35;14.23;;;12.70;59.70;;;;;;5034983;28;19970;-74
2024/03/18 12:33:03;;;;;;;32.05;15.18;;;12.70;59.80;;;;;;5040176;28;20036;-75
2024/03/18 12:35:30;;;;;;;35.45;15.55;;;12.70;59.50;;;;;;5035388;28;20274;-75